Time;durP1;ratioP1;P1;durP2;ratioP2;P2;SDS_P1;SDS_P2;PMS_P1;PMS_P2;Temp;Humidity;BMP_temperature;BMP_pressure;BME280_temperature;BME280_humidity;BME280_pressure;Samples;Min_cycle;Max_cycle;Signal;HPM_P1;HPM_P2
2023/09/24 00:01:16;;;;;;;29.20;6.20;;;;;;;24.57;46.05;94999.88;4993296;28;20125;-83
2023/09/24 00:03:43;;;;;;;34.53;7.25;;;;;;;24.80;46.28;95040.50;4998368;28;20042;-81
2023/09/24 00:06:10;;;;;;;34.50;6.93;;;;;;;24.85;46.20;95061.88;4998573;28;20034;-81
2023/09/24 00:08:36;;;;;;;36.78;7.25;;;;;;;24.71;46.35;95053.56;4979690;28;20058;-81
2023/09/24 00:11:02;;;;;;;26.88;7.47;;;;;;;24.42;46.66;95009.75;4996675;28;20089;-81
2023/09/24 00:13:30;;;;;;;18.75;5.47;;;;;;;24.79;46.73;95063.34;4993861;28;20126;-81
2023/09/24 00:16:06;;;;;;;35.30;6.78;;;;;;;24.40;47.04;95022.13;4992911;28;20029;-81
2023/09/24 00:18:35;;;;;;;23.20;6.40;;;;;;;24.52;47.12;95049.78;4998410;28;20072;-81
2023/09/24 00:21:01;;;;;;;23.30;6.32;;;;;;;24.16;47.20;94972.59;4998224;28;20038;-81
2023/09/24 00:23:30;;;;;;;34.97;7.15;;;;;;;24.65;47.39;95052.28;4999522;28;20034;-81
2023/09/24 00:25:57;;;;;;;26.70;6.80;;;;;;;24.66;47.16;95059.28;4999711;28;20038;-81
2023/09/24 00:28:25;;;;;;;31.27;6.15;;;;;;;24.49;47.62;95041.59;4994572;28;20126;-81
2023/09/24 00:30:55;;;;;;;24.35;6.97;;;;;;;24.51;47.71;95044.72;4980394;28;20053;-81
2023/09/24 00:33:21;;;;;;;35.63;6.70;;;;;;;24.13;47.78;95026.69;4978994;28;20060;-81
2023/09/24 00:35:47;;;;;;;25.40;5.78;;;;;;;23.75;48.25;94985.06;4978811;28;20095;-81
2023/09/24 00:38:13;;;;;;;33.95;7.40;;;;;;;24.25;48.54;95078.03;4980308;28;20023;-81
2023/09/24 00:40:38;;;;;;;28.55;7.03;;;;;;;23.53;48.72;95034.56;4979501;28;20061;-81
2023/09/24 00:43:23;;;;;;;22.40;6.65;;;;;;;23.61;49.35;95071.47;4977786;28;20033;-81
2023/09/24 00:45:50;;;;;;;46.65;7.72;;;;;;;23.11;49.64;95014.81;4979734;28;20057;-82
2023/09/24 00:48:15;;;;;;;29.45;6.97;;;;;;;23.15;49.73;95002.13;4979742;28;20046;-81
2023/09/24 00:50:41;;;;;;;39.00;7.80;;;;;;;23.13;49.77;95005.19;4979415;28;20035;-82
2023/09/24 00:53:08;;;;;;;42.53;7.75;;;;;;;23.13;50.37;95007.09;4978310;28;20027;-82
2023/09/24 00:55:34;;;;;;;30.48;7.32;;;;;;;23.42;50.14;95060.66;4977983;28;20130;-82
2023/09/24 00:58:03;;;;;;;28.98;7.07;;;;;;;23.37;50.02;95036.56;4978448;28;20031;-82
2023/09/24 01:00:30;;;;;;;40.53;7.72;;;;;;;23.03;50.53;94982.22;4978444;28;20037;-82
2023/09/24 01:02:57;;;;;;;34.42;7.00;;;;;;;23.42;49.40;95034.34;4979109;28;20039;-82
2023/09/24 01:05:23;;;;;;;37.47;7.15;;;;;;;23.29;49.40;95022.13;4978049;28;20037;-82
2023/09/24 01:07:49;;;;;;;31.85;7.38;;;;;;;23.56;50.69;95050.13;4976676;28;20042;-84
2023/09/24 01:10:15;;;;;;;37.50;7.03;;;;;;;22.50;50.80;94891.16;4973305;28;20545;-84
2023/09/24 01:12:59;;;;;;;36.65;7.28;;;;;;;22.80;50.93;94957.03;4971977;28;20035;-84
2023/09/24 01:15:25;;;;;;;33.45;6.82;;;;;;;22.28;50.63;94871.00;4972384;28;20121;-84
2023/09/24 01:17:52;;;;;;;36.65;7.10;;;;;;;23.29;51.02;95038.34;4971938;28;20035;-84
2023/09/24 01:20:21;;;;;;;32.92;7.07;;;;;;;23.20;50.54;95015.34;4973485;28;20446;-84
2023/09/24 01:22:47;;;;;;;30.60;6.82;;;;;;;23.15;51.02;95007.53;4973493;28;20111;-83
2023/09/24 01:25:12;;;;;;;37.17;6.60;;;;;;;23.03;51.26;95009.25;4971692;28;20055;-84
2023/09/24 01:27:38;;;;;;;30.30;7.20;;;;;;;23.14;51.33;95001.34;4973630;28;20046;-84
2023/09/24 01:30:06;;;;;;;26.40;7.40;;;;;;;23.05;51.01;94985.31;4974922;28;20173;-83
2023/09/24 01:32:32;;;;;;;34.97;7.43;;;;;;;22.93;51.39;94984.69;4992439;28;20509;-84
2023/09/24 01:35:02;;;;;;;37.97;7.35;;;;;;;22.45;51.30;94911.09;4974749;28;20146;-84
2023/09/24 01:37:27;;;;;;;31.05;7.70;;;;;;;22.91;51.80;94984.28;4992514;28;20084;-84
2023/09/24 01:39:54;;;;;;;36.67;7.45;;;;;;;23.01;51.94;94989.91;4991081;28;20038;-84
2023/09/24 01:42:20;;;;;;;38.38;7.72;;;;;;;22.82;52.29;94960.16;4992960;28;20035;-84
2023/09/24 01:44:45;;;;;;;33.67;6.45;;;;;;;23.15;52.86;95021.06;4992534;28;20054;-84
2023/09/24 01:47:11;;;;;;;38.15;6.65;;;;;;;22.76;52.54;94977.00;4991723;28;20085;-84
2023/09/24 01:49:37;;;;;;;30.48;6.70;;;;;;;22.12;52.76;94900.78;4992414;28;20042;-84
2023/09/24 01:52:04;;;;;;;39.50;7.90;;;;;;;22.47;52.95;94952.06;4974710;28;20464;-84
2023/09/24 01:54:30;;;;;;;38.72;7.07;;;;;;;22.36;53.57;94951.03;4992752;28;20038;-84
2023/09/24 01:56:57;;;;;;;34.00;7.28;;;;;;;22.55;54.37;95009.75;4974718;28;20109;-84
2023/09/24 01:59:23;;;;;;;41.75;7.65;;;;;;;22.71;54.50;95021.31;4974524;28;20096;-84
2023/09/24 02:01:52;;;;;;;36.53;7.22;;;;;;;22.55;54.98;95020.56;4974848;28;20042;-84
2023/09/24 02:04:17;;;;;;;33.95;7.28;;;;;;;22.43;54.62;94982.88;4990601;28;20042;-84
2023/09/24 02:06:43;;;;;;;28.67;6.53;;;;;;;22.60;54.59;95012.97;4991028;28;20052;-83
2023/09/24 02:09:09;;;;;;;40.08;7.07;;;;;;;22.62;54.63;95018.81;4990525;28;20039;-84
2023/09/24 02:11:34;;;;;;;30.10;8.18;;;;;;;22.06;54.94;94950.78;4991692;28;20091;-84
2023/09/24 02:14:00;;;;;;;33.03;8.00;;;;;;;22.20;55.38;94970.00;4991107;28;20042;-84
2023/09/24 02:16:27;;;;;;;26.08;6.93;;;;;;;22.07;55.64;94962.34;4976931;28;20121;-84
2023/09/24 02:18:52;;;;;;;40.22;7.72;;;;;;;22.07;55.96;94982.06;4978515;28;20077;-83
2023/09/24 02:21:18;;;;;;;42.50;8.77;;;;;;;21.98;55.80;94967.16;4995782;28;20030;-84
2023/09/24 02:23:44;;;;;;;37.80;7.32;;;;;;;22.32;55.65;95007.72;4978260;28;20483;-84
2023/09/24 02:26:13;;;;;;;25.73;6.53;;;;;;;22.15;55.24;94972.19;4995847;28;20171;-84
2023/09/24 02:28:39;;;;;;;43.53;7.97;;;;;;;22.35;54.90;95037.88;4995680;28;20535;-84
2023/09/24 02:31:10;;;;;;;36.25;7.75;;;;;;;22.40;54.64;95041.09;4994930;28;20042;-84
2023/09/24 02:33:36;;;;;;;34.83;7.68;;;;;;;22.24;54.42;94997.88;4995207;28;20038;-84
2023/09/24 02:36:02;;;;;;;35.20;7.65;;;;;;;22.55;54.34;95032.16;4995220;28;20060;-84
2023/09/24 02:38:28;;;;;;;26.42;7.15;;;;;;;22.08;54.85;94953.13;4998007;28;20050;-84
2023/09/24 02:40:56;;;;;;;33.28;7.97;;;;;;;21.83;55.57;94950.59;4998390;28;20045;-83
2023/09/24 02:43:23;;;;;;;27.98;8.35;;;;;;;21.77;56.65;94978.22;4999603;28;20064;-84
2023/09/24 02:45:49;;;;;;;30.25;7.00;;;;;;;22.06;55.94;95004.00;4980663;28;20041;-84
2023/09/24 02:48:17;;;;;;;39.50;7.32;;;;;;;22.33;56.06;95022.00;4996826;28;20508;-84
2023/09/24 02:50:44;;;;;;;32.38;7.25;;;;;;;22.05;56.39;95000.50;4998211;28;20026;-83
2023/09/24 02:53:10;;;;;;;29.70;6.47;;;;;;;22.04;55.82;95000.88;4998097;28;20069;-84
2023/09/24 02:55:39;;;;;;;33.33;8.10;;;;;;;22.01;56.07;95029.34;4980613;28;20041;-83
2023/09/24 02:58:05;;;;;;;28.55;7.50;;;;;;;21.65;56.25;94967.53;4980722;28;20065;-84
2023/09/24 03:00:41;;;;;;;39.17;7.97;;;;;;;21.72;56.28;95033.25;4981309;28;20038;-83
2023/09/24 03:03:09;;;;;;;33.85;6.95;;;;;;;21.90;56.85;95041.78;4998022;28;20071;-83
2023/09/24 03:05:37;;;;;;;33.17;8.15;;;;;;;22.02;56.73;95030.16;4998851;28;20077;-83
2023/09/24 03:08:04;;;;;;;27.73;7.22;;;;;;;21.55;56.75;94958.81;4996440;28;20133;-83
2023/09/24 03:10:31;;;;;;;29.13;7.13;;;;;;;21.53;57.11;94963.75;4996931;28;20042;-83
2023/09/24 03:12:58;;;;;;;29.70;7.93;;;;;;;21.05;57.07;94891.25;4998285;28;20039;-83
2023/09/24 03:15:23;;;;;;;28.30;7.57;;;;;;;21.85;57.07;95010.44;4996718;28;20112;-83
2023/09/24 03:17:49;;;;;;;30.48;8.10;;;;;;;21.39;56.50;94931.03;4982392;28;20042;-84
2023/09/24 03:20:19;;;;;;;38.28;8.55;;;;;;;22.13;56.50;95042.75;4999963;28;20042;-84
2023/09/24 03:22:49;;;;;;;33.53;6.95;;;;;;;22.07;56.39;95037.97;4980891;28;20108;-83
2023/09/24 03:25:17;;;;;;;36.70;7.97;;;;;;;22.04;56.25;95023.28;4996669;28;20030;-84
2023/09/24 03:27:43;;;;;;;38.90;8.07;;;;;;;21.50;57.46;94991.44;4996286;28;20061;-84
2023/09/24 03:30:10;;;;;;;31.95;8.15;;;;;;;21.78;57.48;95025.66;4997332;28;20102;-84
2023/09/24 03:32:37;;;;;;;42.33;7.95;;;;;;;21.78;56.99;95012.19;4997588;28;20108;-83
2023/09/24 03:35:05;;;;;;;29.17;7.30;;;;;;;21.82;57.61;95050.81;4995994;28;20026;-84
2023/09/24 03:37:31;;;;;;;21.70;7.20;;;;;;;21.84;57.56;95048.56;4995815;28;20133;-84
2023/09/24 03:39:57;;;;;;;31.95;7.88;;;;;;;21.47;58.12;95011.03;4994512;28;20088;-84
2023/09/24 03:42:22;;;;;;;36.47;7.68;;;;;;;21.59;57.53;95014.78;4995085;28;20030;-84
2023/09/24 03:44:48;;;;;;;37.58;8.20;;;;;;;21.58;56.73;94987.03;4977007;28;20037;-84
2023/09/24 03:47:14;;;;;;;38.67;7.57;;;;;;;21.65;56.86;95003.38;4995722;28;20049;-83
2023/09/24 03:49:41;;;;;;;24.80;7.43;;;;;;;21.18;58.29;94993.31;4997709;28;20038;-84
2023/09/24 03:52:06;;;;;;;45.05;8.73;;;;;;;21.49;57.57;95018.78;4998101;28;20027;-84
2023/09/24 03:54:32;;;;;;;34.92;8.70;;;;;;;21.65;57.61;95033.06;4996065;28;20031;-84
2023/09/24 03:56:58;;;;;;;38.42;8.52;;;;;;;21.75;57.62;95039.84;4998048;28;20041;-83
2023/09/24 03:59:23;;;;;;;35.17;9.13;;;;;;;21.84;57.79;95059.38;4980983;28;20034;-83
2023/09/24 04:01:49;;;;;;;39.75;8.13;;;;;;;21.80;57.64;95042.31;5000928;28;20042;-84
2023/09/24 04:04:14;;;;;;;39.65;8.48;;;;;;;21.77;57.13;95040.28;4986804;28;20068;-84
2023/09/24 04:06:40;;;;;;;34.30;8.55;;;;;;;21.68;57.69;95028.88;5002755;28;20030;-84
2023/09/24 04:09:06;;;;;;;45.03;9.07;;;;;;;21.69;57.84;95060.13;5003171;28;20034;-83
2023/09/24 04:11:32;;;;;;;29.23;7.78;;;;;;;21.71;57.88;95072.16;4980883;28;20497;-83
2023/09/24 04:13:58;;;;;;;38.22;7.80;;;;;;;21.09;57.47;95010.72;4996445;28;20038;-84
2023/09/24 04:16:24;;;;;;;47.88;9.07;;;;;;;21.21;57.65;95031.50;4997523;28;20738;-83
2023/09/24 04:18:50;;;;;;;50.08;8.60;;;;;;;21.07;57.18;95000.28;4995873;28;20049;-84
2023/09/24 04:21:17;;;;;;;39.58;8.43;;;;;;;21.56;57.51;95072.91;4996504;28;20080;-83
2023/09/24 04:23:43;;;;;;;30.25;8.38;;;;;;;21.27;57.30;95039.00;4978918;28;20045;-83
2023/09/24 04:26:22;;;;;;;30.20;7.93;;;;;;;21.43;57.25;95074.91;4979151;28;20058;-84
2023/09/24 04:28:51;;;;;;;31.15;6.90;;;;;;;21.53;57.39;95119.47;4994940;28;20046;-84
2023/09/24 04:31:17;;;;;;;40.13;8.55;;;;;;;20.86;57.04;95064.38;4995443;28;20026;-83
2023/09/24 04:33:44;;;;;;;36.20;8.75;;;;;;;20.62;58.08;95092.16;4996351;28;20094;-83
2023/09/24 04:36:10;;;;;;;34.78;7.93;;;;;;;20.72;58.02;95097.09;4994706;28;20121;-83
2023/09/24 04:38:36;;;;;;;31.05;7.00;;;;;;;20.91;57.35;95126.13;4993678;28;20089;-83
2023/09/24 04:41:03;;;;;;;29.88;8.38;;;;;;;20.50;57.39;95069.84;4994894;28;20038;-84
2023/09/24 04:43:28;;;;;;;33.38;8.38;;;;;;;20.10;57.29;94997.81;4995413;28;20117;-84
2023/09/24 04:45:54;;;;;;;40.33;8.63;;;;;;;20.45;56.99;95046.59;4978969;28;20345;-83
2023/09/24 04:48:19;;;;;;;36.03;7.00;;;;;;;20.77;56.77;95071.81;4975669;28;20584;-84
2023/09/24 04:50:45;;;;;;;33.95;8.00;;;;;;;20.84;56.35;95049.69;4992849;28;20027;-83
2023/09/24 04:53:10;;;;;;;34.08;8.15;;;;;;;21.32;56.15;95127.75;4993724;28;20034;-84
2023/09/24 04:55:36;;;;;;;42.70;8.23;;;;;;;21.13;56.26;95082.50;4992269;28;20030;-84
2023/09/24 04:58:02;;;;;;;43.63;8.10;;;;;;;21.34;55.92;95108.53;4996573;28;20124;-82
2023/09/24 05:00:27;;;;;;;30.75;7.25;;;;;;;21.36;55.74;95109.75;4997822;28;20027;-82
2023/09/24 05:02:53;;;;;;;44.47;7.80;;;;;;;21.12;55.78;95086.34;4999600;28;20034;-82
2023/09/24 05:05:19;;;;;;;28.83;6.93;;;;;;;21.08;55.81;95084.66;4981460;28;20041;-82
2023/09/24 05:07:45;;;;;;;40.70;8.68;;;;;;;21.41;56.08;95124.94;4997584;28;20038;-82
2023/09/24 05:10:10;;;;;;;27.55;7.45;;;;;;;21.67;55.49;95130.66;4998740;28;20045;-82
2023/09/24 05:12:36;;;;;;;43.35;7.65;;;;;;;21.08;55.32;95047.69;4982910;28;20054;-82
2023/09/24 05:15:03;;;;;;;34.65;7.82;;;;;;;21.63;55.20;95123.59;4999964;28;20035;-82
2023/09/24 05:17:28;;;;;;;32.70;7.68;;;;;;;21.55;55.48;95109.13;4999745;28;20041;-82
2023/09/24 05:19:54;;;;;;;39.88;6.68;;;;;;;21.24;55.06;95053.16;4999421;28;20026;-83
2023/09/24 05:22:21;;;;;;;35.10;7.07;;;;;;;20.95;55.31;95004.94;4997653;28;20265;-82
2023/09/24 05:24:46;;;;;;;43.22;7.47;;;;;;;21.20;55.11;95038.81;4981955;28;20038;-82
2023/09/24 05:27:12;;;;;;;28.05;7.00;;;;;;;21.73;54.97;95128.50;4999395;28;20096;-81
2023/09/24 05:29:38;;;;;;;36.40;7.30;;;;;;;21.65;55.18;95111.34;4981666;28;20050;-82
2023/09/24 05:32:03;;;;;;;39.90;6.88;;;;;;;21.44;55.11;95062.16;4998779;28;20034;-82
2023/09/24 05:34:29;;;;;;;36.15;7.80;;;;;;;21.69;54.79;95097.91;4997759;28;20045;-82
2023/09/24 05:36:54;;;;;;;38.75;7.93;;;;;;;21.67;54.63;95086.69;4982106;28;20133;-82
2023/09/24 05:39:20;;;;;;;36.45;7.40;;;;;;;21.95;54.48;95130.63;4998835;28;20140;-81
2023/09/24 05:41:45;;;;;;;38.30;8.60;;;;;;;21.89;54.76;95116.59;4998829;28;20060;-82
2023/09/24 05:44:12;;;;;;;33.75;6.90;;;;;;;21.00;54.82;94983.13;4999786;28;20417;-82
2023/09/24 05:46:37;;;;;;;39.08;7.68;;;;;;;21.69;55.03;95098.69;4999866;28;20094;-82
2023/09/24 05:49:04;;;;;;;54.50;7.30;;;;;;;21.92;54.92;95125.91;4997958;28;20416;-82
2023/09/24 05:51:30;;;;;;;29.63;8.13;;;;;;;21.77;55.81;95153.66;4984925;28;20034;-82
2023/09/24 05:53:56;;;;;;;32.03;7.55;;;;;;;21.76;55.75;95127.78;4985407;28;20057;-81
2023/09/24 05:56:21;;;;;;;30.83;8.00;;;;;;;22.00;55.59;95145.81;4986098;28;20034;-82
2023/09/24 05:58:47;;;;;;;28.42;7.60;;;;;;;21.85;55.10;95118.41;4996421;28;20152;-84
2023/09/24 06:01:15;;;;;;;34.55;7.32;;;;;;;22.16;54.76;95152.81;4996488;28;20033;-84
2023/09/24 06:03:40;;;;;;;30.35;7.13;;;;;;;22.09;55.13;95138.34;4997128;28;20140;-84
2023/09/24 06:06:09;;;;;;;35.30;7.65;;;;;;;21.75;54.88;95066.84;4996758;28;20069;-84
2023/09/24 06:08:36;;;;;;;33.03;8.57;;;;;;;21.80;54.52;95066.59;4995294;28;20121;-85
2023/09/24 06:11:02;;;;;;;30.27;7.40;;;;;;;21.82;54.44;95088.63;4995240;28;20037;-85
2023/09/24 06:13:27;;;;;;;27.05;6.90;;;;;;;22.22;54.82;95140.59;4978749;28;20023;-85
2023/09/24 06:15:59;;;;;;;21.13;6.28;;;;;;;21.63;54.65;95051.53;4996058;28;20161;-85
2023/09/24 06:18:25;;;;;;;24.05;5.63;;;;;;;22.23;55.15;95160.31;4996289;28;20053;-85
2023/09/24 06:20:50;;;;;;;30.50;6.65;;;;;;;22.08;55.14;95109.75;4978848;28;20476;-86
2023/09/24 06:23:16;;;;;;;41.53;8.27;;;;;;;21.96;54.38;95083.59;4994795;28;20030;-85
2023/09/24 06:25:42;;;;;;;34.03;7.70;;;;;;;22.26;54.12;95108.28;4994433;28;20504;-85
2023/09/24 06:28:10;;;;;;;31.40;7.07;;;;;;;22.54;53.92;95125.19;4994744;28;20042;-85
2023/09/24 06:30:38;;;;;;;29.98;7.15;;;;;;;21.95;53.67;95031.50;4978303;28;20039;-85
2023/09/24 06:33:05;;;;;;;30.35;6.43;;;;;;;22.53;53.75;95098.50;4995566;28;20026;-86
2023/09/24 06:35:33;;;;;;;34.08;6.85;;;;;;;22.87;53.76;95149.16;4996396;28;20038;-85
2023/09/24 06:37:59;;;;;;;31.08;7.05;;;;;;;22.81;53.26;95150.53;4995537;28;20390;-86
2023/09/24 06:40:24;;;;;;;25.05;5.90;;;;;;;22.49;53.48;95095.72;4995570;28;20065;-85
2023/09/24 06:42:50;;;;;;;34.80;6.97;;;;;;;22.37;53.03;95071.50;4979014;28;20066;-85
2023/09/24 06:45:15;;;;;;;32.33;6.95;;;;;;;22.67;53.06;95104.22;4978718;28;20030;-86
2023/09/24 06:47:41;;;;;;;28.60;7.40;;;;;;;22.62;52.73;95085.59;4995771;28;20060;-85
2023/09/24 06:50:07;;;;;;;30.10;6.50;;;;;;;22.67;53.81;95106.94;4995193;28;20033;-86
2023/09/24 06:52:33;;;;;;;30.17;7.35;;;;;;;23.06;53.89;95161.91;4978876;28;20584;-85
2023/09/24 06:55:01;;;;;;;27.58;7.35;;;;;;;22.88;53.00;95106.66;4996034;28;20113;-85
2023/09/24 06:57:27;;;;;;;25.58;7.03;;;;;;;23.02;53.16;95139.44;4994501;28;20050;-85
2023/09/24 06:59:53;;;;;;;41.85;8.93;;;;;;;23.05;53.37;95127.88;4978143;28;20038;-85
2023/09/24 07:02:18;;;;;;;29.80;6.80;;;;;;;22.55;53.35;95042.19;4993330;28;20034;-85
2023/09/24 07:04:44;;;;;;;24.17;7.10;;;;;;;22.90;53.74;95115.19;4996139;28;20142;-85
2023/09/24 07:07:10;;;;;;;28.25;7.65;;;;;;;23.18;53.90;95129.34;4978585;28;20500;-84
2023/09/24 07:09:35;;;;;;;35.83;7.90;;;;;;;23.29;53.80;95153.91;4995610;28;20042;-84
2023/09/24 07:12:02;;;;;;;25.60;7.15;;;;;;;23.02;53.79;95105.06;4977439;28;20026;-83
2023/09/24 07:14:27;;;;;;;24.42;6.75;;;;;;;23.18;53.30;95117.75;4995134;28;20038;-84
2023/09/24 07:16:53;;;;;;;27.83;7.35;;;;;;;23.27;53.24;95121.00;4995356;28;20429;-85
2023/09/24 07:19:19;;;;;;;34.05;6.55;;;;;;;23.13;53.42;95082.84;4995431;28;20054;-85
2023/09/24 07:21:46;;;;;;;29.65;8.35;;;;;;;23.34;53.65;95126.59;4977679;28;20050;-85
2023/09/24 07:24:12;;;;;;;29.25;8.02;;;;;;;23.21;53.49;95085.34;4993591;28;20030;-85
2023/09/24 07:26:37;;;;;;;38.97;7.82;;;;;;;23.34;53.89;95104.94;4977768;28;20046;-85
2023/09/24 07:29:03;;;;;;;37.78;8.10;;;;;;;23.22;53.87;95059.84;4977334;28;20406;-85
2023/09/24 07:31:29;;;;;;;36.00;7.95;;;;;;;23.42;53.94;95098.53;4993624;28;20065;-84
2023/09/24 07:33:58;;;;;;;33.80;6.80;;;;;;;23.22;54.17;95062.56;4993096;28;20042;-85
2023/09/24 07:36:25;;;;;;;38.28;7.60;;;;;;;23.37;53.91;95071.75;4994140;28;20038;-85
2023/09/24 07:38:51;;;;;;;32.85;7.03;;;;;;;23.80;53.73;95132.94;4995047;28;20066;-85
2023/09/24 07:41:17;;;;;;;27.98;7.60;;;;;;;23.77;53.33;95123.59;4977389;28;20038;-85
2023/09/24 07:43:42;;;;;;;30.38;8.07;;;;;;;23.81;53.30;95113.59;4977024;28;20097;-85
2023/09/24 07:46:12;;;;;;;38.63;7.82;;;;;;;24.04;52.81;95132.59;4993680;28;20038;-85
2023/09/24 07:48:39;;;;;;;42.40;7.45;;;;;;;24.20;52.69;95133.28;4977779;28;20038;-85
2023/09/24 07:51:05;;;;;;;24.90;6.85;;;;;;;24.20;52.47;95114.34;4993328;28;20030;-86
2023/09/24 07:53:31;;;;;;;28.50;7.25;;;;;;;24.13;52.25;95080.88;4976678;28;20096;-87
2023/09/24 07:56:10;;;;;;;24.27;7.05;;;;;;;24.26;51.91;95095.09;4993326;28;20049;-86
2023/09/24 07:58:38;;;;;;;34.08;7.93;;;;;;;24.57;51.61;95130.81;4994463;28;20042;-85
2023/09/24 08:01:11;;;;;;;31.50;7.15;;;;;;;24.73;51.53;95119.81;4976783;28;20038;-85
2023/09/24 08:03:38;;;;;;;33.55;7.15;;;;;;;24.89;50.69;95111.53;4994292;28;20034;-85
2023/09/24 08:06:04;;;;;;;34.60;7.90;;;;;;;25.00;50.29;95107.06;4994555;28;20030;-85
2023/09/24 08:08:30;;;;;;;31.33;7.22;;;;;;;25.14;49.53;95107.25;4994208;28;20049;-85
2023/09/24 08:10:59;;;;;;;25.05;6.57;;;;;;;24.55;49.85;95011.13;4992799;28;20121;-85
2023/09/24 08:13:24;;;;;;;27.42;6.88;;;;;;;25.15;48.76;95070.06;4992365;28;20178;-85
2023/09/24 08:15:50;;;;;;;29.65;6.82;;;;;;;25.20;49.45;95061.59;4992438;28;20050;-85
2023/09/24 08:18:17;;;;;;;21.48;6.80;;;;;;;25.36;48.78;95057.53;4992594;28;20563;-83
2023/09/24 08:20:44;;;;;;;25.42;6.85;;;;;;;25.67;48.28;95097.06;4993366;28;20042;-83
2023/09/24 08:23:10;;;;;;;26.70;7.35;;;;;;;25.68;47.87;95085.06;4991928;28;20267;-83
2023/09/24 08:25:38;;;;;;;21.83;6.22;;;;;;;25.75;47.43;95100.66;4991947;28;20034;-83
2023/09/24 08:28:07;;;;;;;42.97;6.88;;;;;;;25.80;48.06;95078.56;4991905;28;20069;-85
2023/09/24 08:30:33;;;;;;;31.15;6.80;;;;;;;26.09;47.68;95088.56;4991972;28;20081;-85
2023/09/24 08:32:59;;;;;;;23.88;7.45;;;;;;;26.22;46.81;95080.16;4993308;28;20090;-85
2023/09/24 08:35:26;;;;;;;29.38;7.03;;;;;;;26.39;46.48;95079.53;4975385;28;20134;-85
2023/09/24 08:37:52;;;;;;;29.17;7.43;;;;;;;26.06;46.96;95058.66;4975100;28;20034;-85
2023/09/24 08:40:18;;;;;;;30.48;6.97;;;;;;;25.98;47.15;95049.66;4990970;28;20038;-85
2023/09/24 08:42:47;;;;;;;23.73;6.93;;;;;;;25.95;46.46;95027.88;4991402;28;20054;-85
2023/09/24 08:45:14;;;;;;;25.83;7.18;;;;;;;26.37;46.32;95084.56;4975349;28;20049;-85
2023/09/24 08:47:41;;;;;;;30.20;7.40;;;;;;;26.43;46.10;95085.78;4992014;28;20038;-86
2023/09/24 08:50:07;;;;;;;30.05;7.10;;;;;;;26.17;46.32;95042.44;4991647;28;20034;-85
2023/09/24 08:52:38;;;;;;;31.08;7.78;;;;;;;26.32;46.18;95039.47;4993677;28;20065;-85
2023/09/24 08:55:11;;;;;;;28.70;6.47;;;;;;;26.03;45.67;94981.38;4992850;28;20516;-85
2023/09/24 08:57:38;;;;;;;29.10;6.53;;;;;;;26.60;45.77;95070.75;4992047;28;20039;-85
2023/09/24 09:00:11;;;;;;;44.80;7.40;;;;;;;26.57;46.07;95061.41;4992998;28;20034;-85
2023/09/24 09:02:41;;;;;;;32.63;7.18;;;;;;;26.77;45.42;95078.25;4992674;28;20042;-86
2023/09/24 09:05:12;;;;;;;29.65;7.20;;;;;;;26.68;45.17;95078.59;4975302;28;20115;-85
2023/09/24 09:07:53;;;;;;;27.48;7.03;;;;;;;26.56;45.33;95040.81;4992817;28;20092;-85
2023/09/24 09:10:25;;;;;;;27.98;6.60;;;;;;;26.81;44.97;95071.69;4993040;28;20096;-85
2023/09/24 09:12:51;;;;;;;34.00;6.40;;;;;;;26.74;45.29;95079.78;4993154;28;20080;-85
2023/09/24 09:15:17;;;;;;;20.05;6.25;;;;;;;26.45;45.25;95023.66;4974941;28;20632;-85
2023/09/24 09:17:42;;;;;;;26.77;7.03;;;;;;;26.69;44.78;95028.47;4990910;28;20042;-85
2023/09/24 09:20:08;;;;;;;35.50;6.97;;;;;;;26.84;44.76;95060.03;4991220;28;20041;-85
2023/09/24 09:22:35;;;;;;;29.00;5.78;;;;;;;26.41;44.42;94968.47;4993357;28;20713;-85
2023/09/24 09:25:08;;;;;;;26.60;6.63;;;;;;;27.01;44.91;95071.41;4977081;28;20038;-86
2023/09/24 09:27:35;;;;;;;31.15;7.20;;;;;;;26.77;44.64;95040.97;4979426;28;20040;-84
2023/09/24 09:30:19;;;;;;;26.35;5.60;;;;;;;26.65;44.37;95003.19;4992171;28;20134;-84
2023/09/24 09:32:47;;;;;;;36.17;7.07;;;;;;;26.88;44.98;95044.50;4975757;28;20623;-84
2023/09/24 09:35:14;;;;;;;30.85;6.57;;;;;;;26.94;45.16;95050.38;4976087;28;20504;-83
2023/09/24 09:37:41;;;;;;;31.60;7.25;;;;;;;26.99;45.05;95041.88;4978231;28;20047;-83
2023/09/24 09:40:08;;;;;;;25.58;6.30;;;;;;;26.80;44.97;94996.66;4979875;28;20030;-83
2023/09/24 09:42:36;;;;;;;21.52;5.53;;;;;;;27.35;44.61;95070.03;4981071;28;20145;-83
2023/09/24 09:45:07;;;;;;;23.98;6.13;;;;;;;26.94;44.29;94976.91;4982182;28;20039;-83
2023/09/24 09:47:37;;;;;;;23.98;6.07;;;;;;;27.53;43.91;95061.97;4981576;28;20057;-83
2023/09/24 09:50:04;;;;;;;33.17;7.70;;;;;;;27.54;43.90;95069.72;4983048;28;20042;-84
2023/09/24 09:52:40;;;;;;;25.08;6.72;;;;;;;27.25;43.54;95041.59;4983056;28;20026;-83
2023/09/24 09:55:07;;;;;;;33.63;7.20;;;;;;;27.38;43.16;95049.44;4988129;28;20035;-83
2023/09/24 09:57:34;;;;;;;29.25;7.13;;;;;;;27.69;43.13;95083.41;4983392;28;20113;-84
2023/09/24 10:00:09;;;;;;;35.55;8.55;;;;;;;27.38;43.13;95060.31;4979441;28;20030;-84
2023/09/24 10:02:35;;;;;;;22.13;6.00;;;;;;;27.41;43.39;95081.31;4982407;28;20509;-83
2023/09/24 10:05:01;;;;;;;31.83;7.57;;;;;;;27.46;43.30;95076.31;4964921;28;20046;-83
2023/09/24 10:07:27;;;;;;;31.80;7.28;;;;;;;27.51;43.02;95054.16;4975437;28;20041;-84
2023/09/24 10:09:53;;;;;;;31.63;6.55;;;;;;;27.59;43.42;95063.94;4978155;28;20043;-83
2023/09/24 10:12:36;;;;;;;22.70;6.88;;;;;;;27.68;43.54;95081.84;4979528;28;20026;-83
2023/09/24 10:15:27;;;;;;;37.00;7.13;;;;;;;27.85;42.73;95083.81;4976729;28;20034;-83
2023/09/24 10:18:11;;;;;;;41.90;13.32;;;;;;;27.80;42.77;95073.31;4974862;28;20504;-84
2023/09/24 10:20:48;;;;;;;31.63;8.02;;;;;;;27.83;42.53;95067.09;4977660;28;20159;-83
2023/09/24 10:23:29;;;;;;;30.23;6.82;;;;;;;27.91;42.63;95076.84;4981134;28;20039;-83
2023/09/24 10:26:00;;;;;;;31.35;7.18;;;;;;;27.59;42.12;95047.59;4980354;28;20049;-83
2023/09/24 10:28:48;;;;;;;38.25;7.85;;;;;;;27.85;43.03;95081.88;4987012;28;20089;-83
2023/09/24 10:31:16;;;;;;;23.45;6.28;;;;;;;27.58;42.58;95034.34;4982311;28;20132;-83
2023/09/24 10:34:02;;;;;;;29.17;6.38;;;;;;;27.61;42.38;95037.09;4999776;28;20030;-83
2023/09/24 10:36:33;;;;;;;34.33;6.10;;;;;;;27.67;42.15;95037.50;4997756;28;20085;-82
2023/09/24 10:39:11;;;;;;;33.20;6.88;;;;;;;27.69;42.00;95031.66;5000192;28;20026;-83
2023/09/24 10:42:17;;;;;;;32.88;7.70;;;;;;;28.00;41.71;95063.59;4982531;28;20436;-83
2023/09/24 10:44:42;;;;;;;30.58;6.20;;;;;;;28.07;41.37;95051.97;4999618;28;20072;-83
2023/09/24 10:47:29;;;;;;;28.67;6.60;;;;;;;28.07;42.24;95041.06;4999488;28;20038;-83
2023/09/24 10:50:13;;;;;;;31.20;7.78;;;;;;;27.68;41.06;94962.00;4999352;28;20030;-83
2023/09/24 10:52:49;;;;;;;31.58;6.35;;;;;;;28.27;42.02;95047.69;4982672;28;20482;-83
2023/09/24 10:55:15;;;;;;;28.92;8.43;;;;;;;28.19;42.00;95027.84;5000138;28;20126;-83
2023/09/24 10:57:53;;;;;;;23.15;7.30;;;;;;;28.22;43.01;95034.47;5000265;28;20039;-83
2023/09/24 11:00:20;;;;;;;25.38;6.78;;;;;;;27.77;41.76;94951.50;4982809;28;20038;-83
2023/09/24 11:02:57;;;;;;;30.50;7.32;;;;;;;28.27;41.97;95013.03;4999151;28;20113;-83
2023/09/24 11:05:22;;;;;;;34.13;6.57;;;;;;;28.32;41.59;95009.13;4997870;28;20117;-84
2023/09/24 11:07:48;;;;;;;27.50;6.80;;;;;;;28.70;41.52;95034.78;4998460;28;20136;-83
2023/09/24 11:10:20;;;;;;;21.23;5.72;;;;;;;28.77;40.84;95019.22;5000498;28;20037;-83
2023/09/24 11:12:57;;;;;;;27.45;5.68;;;;;;;28.70;40.66;95000.09;5000554;28;20038;-83
2023/09/24 11:15:24;;;;;;;33.47;6.55;;;;;;;28.86;41.15;95021.53;5001657;28;20022;-83
2023/09/24 11:17:51;;;;;;;29.05;7.22;;;;;;;28.85;40.78;95038.31;4998557;28;20045;-83
2023/09/24 11:20:20;;;;;;;28.58;6.40;;;;;;;28.50;40.48;94979.09;4982106;28;20031;-83
2023/09/24 11:23:14;;;;;;;21.80;7.03;;;;;;;28.43;41.18;94963.53;4981774;28;20116;-83
2023/09/24 11:25:46;;;;;;;20.00;6.68;;;;;;;28.62;40.47;95011.41;4978582;28;20432;-83
2023/09/24 11:28:12;;;;;;;22.52;5.70;;;;;;;28.50;40.95;95000.94;4993728;28;20523;-83